Time;durP1;ratioP1;P1;durP2;ratioP2;P2;SDS_P1;SDS_P2;PMS_P1;PMS_P2;Temp;Humidity;BMP_temperature;BMP_pressure;BME280_temperature;BME280_humidity;BME280_pressure;Samples;Min_cycle;Max_cycle;Signal;HPM_P1;HPM_P2
2022/03/01 00:00:34;;;;;;;;;38.00;31.50;;;;;13.00;39.19;102336.66;5081340;27;62003;-75
2022/03/01 00:03:00;;;;;;;;;39.00;24.00;;;;;12.96;39.64;102330.31;5081722;28;62060;-75
2022/03/01 00:05:25;;;;;;;;;30.00;28.25;;;;;12.94;39.90;102336.28;5080679;27;62075;-75
2022/03/01 00:07:51;;;;;;;;;33.75;26.75;;;;;12.89;39.92;102331.66;5082275;27;61811;-75
2022/03/01 00:10:16;;;;;;;;;36.50;30.75;;;;;12.88;40.02;102337.75;5080438;27;62132;-75
2022/03/01 00:12:41;;;;;;;;;38.50;27.50;;;;;12.85;39.82;102334.00;5081378;28;63348;-75
2022/03/01 00:15:08;;;;;;;;;38.00;32.25;;;;;12.83;39.91;102330.38;5082039;27;61736;-75
2022/03/01 00:17:33;;;;;;;;;34.75;30.25;;;;;12.80;40.40;102328.47;5097964;27;62040;-76
2022/03/01 00:19:58;;;;;;;;;34.50;30.25;;;;;12.79;40.01;102328.38;5082264;28;61889;-75
2022/03/01 00:22:24;;;;;;;;;43.75;36.00;;;;;12.75;40.32;102332.56;5081263;27;63158;-75
2022/03/01 00:24:50;;;;;;;;;36.00;30.50;;;;;12.73;39.44;102323.66;5080840;28;61910;-75
2022/03/01 00:27:16;;;;;;;;;43.75;32.50;;;;;12.69;39.30;102325.19;5096980;27;61853;-75
2022/03/01 00:29:41;;;;;;;;;40.25;33.25;;;;;12.68;39.54;102323.38;5082153;27;61856;-75
2022/03/01 00:32:07;;;;;;;;;44.50;29.75;;;;;12.68;40.07;102318.13;5097216;27;64122;-75
2022/03/01 00:34:33;;;;;;;;;33.50;32.00;;;;;12.67;39.94;102318.00;5097591;27;61798;-75
2022/03/01 00:36:58;;;;;;;;;40.00;25.50;;;;;12.65;40.24;102314.38;5082097;27;62299;-75
2022/03/01 00:39:24;;;;;;;;;36.75;31.75;;;;;12.64;40.31;102315.22;5081976;27;61904;-75
2022/03/01 00:41:49;;;;;;;;;40.75;34.00;;;;;12.62;40.69;102319.47;5081218;27;62918;-75
2022/03/01 00:44:15;;;;;;;;;41.50;36.50;;;;;12.56;40.57;102312.09;5079874;28;61938;-74
2022/03/01 00:46:40;;;;;;;;;42.00;33.50;;;;;12.55;40.69;102317.25;5083236;28;61708;-75
2022/03/01 00:49:06;;;;;;;;;50.50;39.00;;;;;12.54;40.97;102316.34;5085662;27;61784;-75
2022/03/01 00:51:31;;;;;;;;;43.25;35.25;;;;;12.52;41.30;102325.00;5099933;27;63551;-75
2022/03/01 00:53:57;;;;;;;;;46.00;35.50;;;;;12.50;41.16;102322.25;5085520;28;62133;-75
2022/03/01 00:56:23;;;;;;;;;40.75;38.25;;;;;12.50;41.40;102329.25;5100174;27;62423;-75
2022/03/01 00:58:49;;;;;;;;;48.50;37.25;;;;;12.48;41.69;102334.41;5084918;27;61649;-75
2022/03/01 01:01:14;;;;;;;;;53.75;40.25;;;;;12.48;41.94;102329.16;5082824;28;65186;-75
2022/03/01 01:03:40;;;;;;;;;44.00;37.50;;;;;12.47;41.29;102322.06;5084279;27;61756;-75
2022/03/01 01:06:05;;;;;;;;;48.00;40.25;;;;;12.46;41.59;102321.13;5084333;28;61784;-75
2022/03/01 01:08:31;;;;;;;;;37.75;34.50;;;;;12.45;42.04;102318.44;5069826;27;61904;-75
2022/03/01 01:10:57;;;;;;;;;47.00;37.00;;;;;12.43;42.06;102318.34;5078959;27;61967;-75
2022/03/01 01:13:22;;;;;;;;;51.25;38.75;;;;;12.42;42.15;102318.22;5083042;27;61911;-75
2022/03/01 01:15:48;;;;;;;;;50.75;39.50;;;;;12.42;42.19;102323.50;5083847;28;61854;-75
2022/03/01 01:18:14;;;;;;;;;47.75;37.50;;;;;12.39;42.08;102318.97;5099549;27;61829;-75
2022/03/01 01:20:40;;;;;;;;;51.75;41.75;;;;;12.36;42.01;102315.22;5083415;27;61888;-75
2022/03/01 01:23:06;;;;;;;;;56.75;40.50;;;;;12.33;42.16;102310.69;5084082;27;61696;-75
2022/03/01 01:25:32;;;;;;;;;53.50;43.75;;;;;12.28;42.29;102306.88;5083518;27;62270;-75
2022/03/01 01:27:59;;;;;;;;;57.25;44.75;;;;;12.22;42.56;102303.84;5082802;28;62184;-75
2022/03/01 01:30:30;;;;;;;;;61.25;46.00;;;;;12.18;42.61;102307.09;5083760;27;63123;-75
2022/03/01 01:32:56;;;;;;;;;59.00;43.50;;;;;12.17;42.57;102316.72;5084324;27;61846;-75
2022/03/01 01:35:24;;;;;;;;;64.00;47.25;;;;;12.17;42.49;102316.72;5083222;27;61957;-76
2022/03/01 01:37:51;;;;;;;;;55.75;42.25;;;;;12.17;43.23;102311.47;5084504;27;62677;-74
2022/03/01 01:40:20;;;;;;;;;60.00;47.50;;;;;12.17;42.83;102307.91;5083893;27;62080;-75
2022/03/01 01:42:46;;;;;;;;;63.75;46.75;;;;;12.16;43.09;102307.00;5084357;27;61690;-75
2022/03/01 01:45:12;;;;;;;;;61.50;48.00;;;;;12.14;42.88;102312.97;5084401;27;61890;-75
2022/03/01 01:47:38;;;;;;;;;57.75;41.25;;;;;12.15;43.13;102317.44;5082932;27;61786;-75
2022/03/01 01:50:05;;;;;;;;;48.75;39.75;;;;;12.13;42.97;102314.72;5099453;27;64556;-75
2022/03/01 01:52:30;;;;;;;;;49.00;40.25;;;;;12.14;43.05;102310.34;5082936;27;61821;-75
2022/03/01 01:54:56;;;;;;;;;58.50;44.25;;;;;12.14;43.14;102316.50;5083163;27;61774;-75
2022/03/01 01:57:24;;;;;;;;;58.50;44.50;;;;;12.16;43.24;102311.34;5098754;27;61907;-75
2022/03/01 01:59:53;;;;;;;;;60.75;42.50;;;;;12.16;43.18;102308.72;5083230;27;63266;-75
2022/03/01 02:02:20;;;;;;;;;55.25;42.50;;;;;12.16;43.23;102314.00;5084199;27;61816;-75
2022/03/01 02:04:47;;;;;;;;;59.75;49.00;;;;;12.15;43.39;102312.19;5099842;27;61829;-75
2022/03/01 02:07:13;;;;;;;;;57.00;44.50;;;;;12.13;43.31;102312.09;5082739;27;61885;-76
2022/03/01 02:09:39;;;;;;;;;56.75;44.50;;;;;12.13;43.15;102316.44;5083140;27;61924;-75
2022/03/01 02:12:05;;;;;;;;;60.00;43.75;;;;;12.14;43.55;102313.88;5082558;27;61773;-75
2022/03/01 02:14:35;;;;;;;;;60.25;42.00;;;;;12.17;42.87;102313.16;5082788;27;61822;-75
2022/03/01 02:17:04;;;;;;;;;60.50;44.75;;;;;12.19;43.48;102311.53;5082755;27;61716;-75
2022/03/01 02:19:30;;;;;;;;;58.25;48.00;;;;;12.18;43.34;102318.53;5082055;27;63774;-75
2022/03/01 02:21:57;;;;;;;;;57.75;42.75;;;;;12.19;43.20;102316.81;5083274;27;61703;-75
2022/03/01 02:24:25;;;;;;;;;59.50;44.00;;;;;12.20;43.11;102319.53;5082545;27;61995;-76
2022/03/01 02:26:58;;;;;;;;;61.25;44.75;;;;;12.20;43.08;102316.91;5083556;27;61775;-75
2022/03/01 02:29:25;;;;;;;;;57.75;45.25;;;;;12.19;43.14;102311.53;5081880;27;63720;-75
2022/03/01 02:31:52;;;;;;;;;55.00;46.50;;;;;12.16;43.39;102312.25;5083500;27;61831;-75
2022/03/01 02:34:18;;;;;;;;;62.25;44.50;;;;;12.19;43.38;102317.72;5084004;27;61998;-75
2022/03/01 02:36:45;;;;;;;;;64.25;45.25;;;;;12.20;43.47;102306.38;5082252;27;61974;-75
2022/03/01 02:39:11;;;;;;;;;58.75;45.00;;;;;12.20;43.34;102302.84;5081733;28;63563;-75
2022/03/01 02:41:42;;;;;;;;;61.00;46.50;;;;;12.22;43.53;102295.94;5083578;27;61885;-75
2022/03/01 02:44:08;;;;;;;;;61.75;44.25;;;;;12.22;43.36;102309.09;5081918;27;62178;-75
2022/03/01 02:46:34;;;;;;;;;64.50;50.00;;;;;12.22;43.18;102310.00;5083705;28;62002;-75
2022/03/01 02:49:00;;;;;;;;;58.75;45.50;;;;;12.22;43.49;102312.66;5082507;27;62690;-75
2022/03/01 02:51:25;;;;;;;;;57.75;43.00;;;;;12.23;43.56;102310.91;5083457;27;62061;-75
2022/03/01 02:53:51;;;;;;;;;57.25;44.00;;;;;12.24;43.32;102313.66;5082945;27;61775;-75
2022/03/01 02:56:16;;;;;;;;;53.50;45.25;;;;;12.21;43.55;102308.22;5082782;27;61888;-76
2022/03/01 02:58:42;;;;;;;;;66.25;45.50;;;;;12.20;43.12;102295.84;5080642;27;63646;-75
2022/03/01 03:01:08;;;;;;;;;59.00;45.50;;;;;12.17;43.60;102300.94;5082510;27;61699;-75
2022/03/01 03:03:33;;;;;;;;;59.50;46.50;;;;;12.12;43.53;102306.72;5081434;27;61730;-75
2022/03/01 03:05:59;;;;;;;;;62.67;49.33;;;;;12.09;44.00;102315.34;5081310;27;62183;-75
2022/03/01 03:08:24;;;;;;;;;59.50;45.25;;;;;12.11;43.62;102318.06;5081844;27;61872;-76
2022/03/01 03:10:50;;;;;;;;;59.25;45.00;;;;;12.11;43.82;102323.34;5082546;27;61933;-75
2022/03/01 03:13:15;;;;;;;;;63.33;49.00;;;;;12.10;43.89;102318.88;5081450;27;61857;-76
2022/03/01 03:15:41;;;;;;;;;64.25;45.50;;;;;12.11;43.88;102312.81;5081705;28;62222;-76
2022/03/01 03:18:07;;;;;;;;;67.25;48.00;;;;;12.11;43.82;102311.06;5080569;28;63626;-75
2022/03/01 03:20:32;;;;;;;;;58.00;48.25;;;;;12.11;43.72;102304.91;5082402;27;61980;-75
2022/03/01 03:22:58;;;;;;;;;63.50;46.00;;;;;12.10;44.14;102309.25;5080767;28;62124;-76
2022/03/01 03:25:23;;;;;;;;;64.00;49.00;;;;;12.12;44.12;102307.59;5082687;27;61796;-76
2022/03/01 03:27:48;;;;;;;;;64.00;50.25;;;;;12.12;43.97;102304.97;5081517;27;63033;-75
2022/03/01 03:30:14;;;;;;;;;65.75;47.25;;;;;12.12;43.91;102304.06;5082305;27;61838;-75
2022/03/01 03:32:39;;;;;;;;;61.50;48.50;;;;;12.12;44.09;102306.72;5082707;27;61886;-75
2022/03/01 03:35:06;;;;;;;;;57.75;47.50;;;;;12.12;43.81;102304.06;5097693;27;62026;-75
2022/03/01 03:37:31;;;;;;;;;61.00;47.00;;;;;12.10;44.05;102305.69;5080423;28;65117;-75
2022/03/01 03:39:57;;;;;;;;;62.67;48.00;;;;;12.05;43.91;102295.78;5082073;28;62000;-75
2022/03/01 03:42:22;;;;;;;;;69.50;49.75;;;;;12.06;43.89;102294.06;5082223;28;62291;-76
2022/03/01 03:44:48;;;;;;;;;63.67;50.00;;;;;12.05;44.01;102292.25;5082639;27;61688;-75
2022/03/01 03:47:14;;;;;;;;;65.25;46.00;;;;;12.04;44.01;102299.25;5081349;27;61979;-75
2022/03/01 03:49:39;;;;;;;;;65.33;49.33;;;;;12.06;44.28;102294.06;5082052;27;61720;-75
2022/03/01 03:52:06;;;;;;;;;65.50;51.75;;;;;12.06;44.09;102291.44;5081977;27;61942;-75
2022/03/01 03:54:32;;;;;;;;;64.00;45.33;;;;;12.03;43.86;102289.53;5098124;27;61839;-75
2022/03/01 03:56:58;;;;;;;;;53.67;44.00;;;;;12.01;44.09;102280.63;5080961;27;61897;-75
2022/03/01 03:59:24;;;;;;;;;64.75;51.50;;;;;12.02;44.07;102287.72;5080305;28;61850;-75
2022/03/01 04:01:49;;;;;;;;;61.50;49.00;;;;;12.01;44.41;102282.34;5081911;28;61804;-75
2022/03/01 04:04:15;;;;;;;;;68.00;51.33;;;;;12.03;44.33;102278.09;5081574;27;61789;-76
2022/03/01 04:06:40;;;;;;;;;62.75;46.25;;;;;12.06;44.39;102267.75;5080097;28;64806;-76
2022/03/01 04:09:06;;;;;;;;;59.75;48.00;;;;;12.06;44.31;102270.38;5081500;27;61873;-75
2022/03/01 04:11:33;;;;;;;;;62.50;46.50;;;;;12.01;44.24;102264.84;5080554;28;61834;-75
2022/03/01 04:13:58;;;;;;;;;61.00;47.67;;;;;12.01;44.09;102271.81;5082097;27;61765;-75
2022/03/01 04:16:24;;;;;;;;;61.67;47.67;;;;;12.03;44.31;102279.00;5081224;27;62908;-75
2022/03/01 04:18:50;;;;;;;;;64.50;48.00;;;;;12.04;44.10;102288.72;5081701;27;61845;-75
2022/03/01 04:21:16;;;;;;;;;56.50;46.25;;;;;12.04;44.28;102287.81;5082310;28;62506;-76
2022/03/01 04:23:42;;;;;;;;;65.50;50.50;;;;;12.06;44.15;102295.00;5084219;28;62019;-75
2022/03/01 04:26:07;;;;;;;;;64.00;47.50;;;;;12.10;44.31;102293.44;5082743;27;65161;-76
2022/03/01 04:28:33;;;;;;;;;70.25;48.50;;;;;12.11;44.50;102291.75;5085121;27;61977;-76
2022/03/01 04:30:58;;;;;;;;;63.50;47.75;;;;;12.13;44.04;102282.22;5085190;27;62012;-76
2022/03/01 04:33:24;;;;;;;;;64.25;48.25;;;;;12.12;44.05;102283.91;5084999;27;61786;-75
2022/03/01 04:35:49;;;;;;;;;68.00;48.00;;;;;12.17;43.99;102285.13;5083323;28;63556;-76
2022/03/01 04:38:15;;;;;;;;;74.33;55.33;;;;;12.18;44.06;102288.66;5084881;27;61834;-75
2022/03/01 04:40:41;;;;;;;;;62.00;44.25;;;;;12.19;44.12;102286.16;5083868;27;61845;-75
2022/03/01 04:43:06;;;;;;;;;62.50;49.00;;;;;12.23;43.97;102285.53;5083603;27;62195;-75
2022/03/01 04:45:32;;;;;;;;;53.25;43.00;;;;;12.28;43.77;102277.91;5084333;27;61901;-75
2022/03/01 04:47:59;;;;;;;;;51.75;40.00;;;;;12.29;42.57;102287.59;5084983;27;61828;-75
2022/03/01 04:50:25;;;;;;;;;58.25;40.25;;;;;12.31;42.74;102288.59;5083188;27;62146;-75
2022/03/01 04:52:50;;;;;;;;;48.00;37.50;;;;;12.32;42.75;102287.81;5085337;27;61872;-75
2022/03/01 04:55:16;;;;;;;;;53.00;40.00;;;;;12.37;42.28;102275.81;5082635;27;63881;-75
2022/03/01 04:57:43;;;;;;;;;49.00;39.75;;;;;12.42;42.80;102279.63;5081835;27;62029;-75
2022/03/01 05:00:10;;;;;;;;;50.25;36.75;;;;;12.43;42.49;102289.38;5083067;27;62017;-75
2022/03/01 05:02:47;;;;;;;;;52.00;35.25;;;;;12.48;42.57;102281.75;5083857;27;61912;-75
2022/03/01 05:05:13;;;;;;;;;49.75;40.25;;;;;12.51;42.24;102279.31;5082892;27;61953;-75
2022/03/01 05:07:41;;;;;;;;;46.25;37.25;;;;;12.54;41.92;102283.84;5082463;28;61831;-75
2022/03/01 05:10:12;;;;;;;;;48.25;36.75;;;;;12.56;41.74;102279.59;5083788;27;61908;-75
2022/03/01 05:12:49;;;;;;;;;52.25;39.25;;;;;12.56;41.43;102282.22;5084040;27;62080;-75
2022/03/01 05:15:15;;;;;;;;;45.75;39.00;;;;;12.52;41.94;102267.03;5083210;28;63327;-76
2022/03/01 05:17:41;;;;;;;;;43.25;36.75;;;;;12.53;41.74;102266.22;5084559;27;62103;-75
2022/03/01 05:20:07;;;;;;;;;52.25;35.50;;;;;12.51;41.52;102271.41;5084728;27;61982;-75
2022/03/01 05:22:33;;;;;;;;;44.75;37.50;;;;;12.50;41.37;102273.94;5084386;27;61946;-75
2022/03/01 05:24:59;;;;;;;;;44.25;34.25;;;;;12.54;41.42;102279.47;5082368;28;65272;-75
2022/03/01 05:27:24;;;;;;;;;55.50;36.25;;;;;12.58;41.56;102284.13;5083713;28;62095;-75
2022/03/01 05:29:50;;;;;;;;;39.00;33.00;;;;;12.62;41.51;102287.84;5083075;27;61800;-75
2022/03/01 05:32:16;;;;;;;;;41.25;37.75;;;;;12.67;41.86;102278.50;5083318;28;61853;-76
2022/03/01 05:34:43;;;;;;;;;53.50;37.25;;;;;12.67;41.13;102267.97;5082334;27;63926;-75
2022/03/01 05:37:09;;;;;;;;;44.50;30.50;;;;;12.68;41.35;102268.06;5084104;28;61891;-75
2022/03/01 05:39:34;;;;;;;;;46.75;36.75;;;;;12.64;40.96;102268.69;5083857;27;61712;-75
2022/03/01 05:41:59;;;;;;;;;43.75;35.75;;;;;12.71;41.49;102271.69;5084370;28;61745;-75
2022/03/01 05:44:25;;;;;;;;;45.00;37.25;;;;;12.75;41.73;102274.59;5082798;27;62012;-75
2022/03/01 05:46:50;;;;;;;;;50.75;38.25;;;;;12.78;41.55;102260.69;5083682;27;61787;-75
2022/03/01 05:49:16;;;;;;;;;51.50;36.75;;;;;12.76;41.02;102264.97;5082929;27;62633;-75
2022/03/01 05:51:41;;;;;;;;;46.25;35.25;;;;;12.78;41.20;102265.97;5083559;27;62099;-75
2022/03/01 05:54:07;;;;;;;;;43.75;34.75;;;;;12.81;40.86;102268.75;5082131;28;64769;-75
2022/03/01 05:56:32;;;;;;;;;44.25;37.50;;;;;12.83;41.14;102261.84;5083448;27;62090;-75
2022/03/01 05:58:57;;;;;;;;;47.00;37.25;;;;;12.82;40.71;102262.69;5081846;27;62532;-75
2022/03/01 06:01:28;;;;;;;;;31.50;28.50;;;;;12.81;41.29;102261.78;5082622;27;61845;-75
2022/03/01 06:03:56;;;;;;;;;45.25;35.25;;;;;12.81;41.18;102263.50;5083531;27;62199;-75
2022/03/01 06:06:23;;;;;;;;;39.25;31.25;;;;;12.80;40.91;102266.97;5082458;28;61811;-75
2022/03/01 06:08:49;;;;;;;;;39.25;36.25;;;;;12.83;40.97;102273.34;5083256;28;61845;-76
2022/03/01 06:11:14;;;;;;;;;55.75;40.00;;;;;12.86;41.42;102281.41;5082592;28;62171;-75
2022/03/01 06:13:39;;;;;;;;;57.25;41.75;;;;;12.85;42.03;102283.94;5080756;27;63678;-75
2022/03/01 06:16:05;;;;;;;;;55.25;43.00;;;;;12.87;42.10;102279.66;5082166;27;61933;-78
2022/03/01 06:18:31;;;;;;;;;67.50;51.50;;;;;12.86;42.51;102291.03;5083435;27;61750;-77
2022/03/01 06:20:58;;;;;;;;;67.50;48.25;;;;;12.85;43.10;102292.78;5082187;28;61795;-76
2022/03/01 06:23:24;;;;;;;;;59.00;46.25;;;;;12.81;43.02;102290.78;5081501;28;63779;-77
2022/03/01 06:25:49;;;;;;;;;63.50;52.00;;;;;12.76;43.01;102289.56;5083230;27;61695;-77
2022/03/01 06:28:15;;;;;;;;;63.50;49.75;;;;;12.71;42.91;102298.94;5082815;27;61845;-77
2022/03/01 06:30:40;;;;;;;;;66.33;52.00;;;;;12.67;43.32;102305.75;5083215;27;62040;-77
2022/03/01 06:33:06;;;;;;;;;70.00;50.75;;;;;12.67;43.18;102310.09;5081427;28;64809;-77
2022/03/01 06:35:31;;;;;;;;;70.25;49.50;;;;;12.67;43.70;102305.75;5081675;27;61838;-77
2022/03/01 06:37:57;;;;;;;;;66.67;51.67;;;;;12.68;43.58;102307.56;5083451;27;62248;-77
2022/03/01 06:40:24;;;;;;;;;61.33;47.33;;;;;12.64;43.70;102307.31;5083318;27;61727;-77
2022/03/01 06:42:49;;;;;;;;;65.00;49.00;;;;;12.66;43.80;102309.22;5079718;28;64423;-77
2022/03/01 06:45:15;;;;;;;;;71.00;50.67;;;;;12.72;44.49;102303.38;5082945;27;61905;-76
2022/03/01 06:47:41;;;;;;;;;66.25;49.00;;;;;12.73;43.73;102310.47;5078006;28;62014;-78
2022/03/01 06:50:08;;;;;;;;;70.67;50.00;;;;;12.78;43.63;102314.28;5061502;28;62349;-77
2022/03/01 06:52:34;;;;;;;;;68.75;50.00;;;;;12.77;43.52;102323.03;5077768;28;63968;-77
2022/03/01 06:55:05;;;;;;;;;72.67;51.33;;;;;12.81;43.88;102311.84;5062421;28;62104;-78
2022/03/01 06:57:30;;;;;;;;;70.25;50.50;;;;;12.85;43.41;102313.84;5060763;28;61786;-77
2022/03/01 06:59:56;;;;;;;;;66.67;49.67;;;;;12.86;43.38;102310.38;5061185;28;61868;-77
2022/03/01 07:02:22;;;;;;;;;64.25;50.75;;;;;12.89;43.54;102310.56;5061836;28;61768;-76
2022/03/01 07:04:48;;;;;;;;;64.00;51.00;;;;;12.93;43.78;102319.56;5060828;28;61854;-76
2022/03/01 07:07:14;;;;;;;;;70.50;51.50;;;;;12.93;43.54;102313.41;5062497;28;61780;-74
2022/03/01 07:09:39;;;;;;;;;70.33;52.33;;;;;12.94;43.66;102320.47;5079611;27;61956;-75
2022/03/01 07:12:05;;;;;;;;;76.67;51.00;;;;;12.99;43.44;102314.66;5076465;28;64800;-76
2022/03/01 07:14:32;;;;;;;;;70.67;51.67;;;;;13.04;43.54;102315.81;5061635;28;62187;-75
2022/03/01 07:16:58;;;;;;;;;66.00;48.00;;;;;13.08;43.73;102323.09;5061805;28;62071;-75
2022/03/01 07:19:24;;;;;;;;;64.50;50.75;;;;;13.14;43.68;102319.03;5062374;28;62247;-75
2022/03/01 07:21:50;;;;;;;;;76.00;55.67;;;;;13.19;43.38;102322.81;5061625;28;61921;-75
2022/03/01 07:24:15;;;;;;;;;81.00;58.33;;;;;13.24;43.57;102318.75;5060687;28;62049;-75
2022/03/01 07:26:40;;;;;;;;;62.75;51.50;;;;;13.31;42.76;102314.78;5061977;28;62041;-75
2022/03/01 07:29:06;;;;;;;;;70.50;51.75;;;;;13.34;42.85;102314.94;5077604;27;61909;-75
2022/03/01 07:31:31;;;;;;;;;58.75;46.75;;;;;13.35;42.73;102314.13;5076814;28;64757;-74
2022/03/01 07:33:57;;;;;;;;;64.25;44.25;;;;;13.36;42.95;102315.94;5069868;28;61879;-75
2022/03/01 07:36:22;;;;;;;;;69.00;48.00;;;;;13.36;43.01;102321.22;5080312;28;61858;-75
2022/03/01 07:38:48;;;;;;;;;60.75;47.25;;;;;13.40;42.92;102318.84;5081829;27;61933;-76
2022/03/01 07:41:13;;;;;;;;;68.75;53.00;;;;;13.41;43.09;102325.00;5078939;28;63629;-76
2022/03/01 07:43:39;;;;;;;;;74.67;56.67;;;;;13.43;43.24;102315.47;5078776;28;61951;-75
2022/03/01 07:46:07;;;;;;;;;68.25;48.50;;;;;13.48;42.96;102319.28;5078447;28;62450;-76
2022/03/01 07:48:32;;;;;;;;;67.00;47.75;;;;;13.54;42.77;102318.72;5067788;28;61786;-76
2022/03/01 07:50:58;;;;;;;;;65.00;52.75;;;;;13.61;42.78;102318.25;5060843;28;62584;-76
2022/03/01 07:53:23;;;;;;;;;64.50;47.00;;;;;13.67;42.23;102315.97;5061734;28;61772;-76
2022/03/01 07:55:48;;;;;;;;;59.00;47.00;;;;;13.74;42.58;102315.47;5075918;28;62377;-76
2022/03/01 07:58:14;;;;;;;;;60.75;44.00;;;;;13.80;42.33;102307.00;5080392;27;61857;-75
2022/03/01 08:00:39;;;;;;;;;62.00;48.00;;;;;13.87;42.25;102309.16;5079377;27;62921;-75
2022/03/01 08:03:05;;;;;;;;;62.25;49.00;;;;;13.95;42.39;102315.78;5078574;27;61822;-75
2022/03/01 08:05:30;;;;;;;;;60.75;46.00;;;;;14.00;41.99;102316.91;5070002;27;62008;-75
2022/03/01 08:07:57;;;;;;;;;65.00;48.50;;;;;14.08;41.75;102320.00;5074948;28;61748;-76
2022/03/01 08:10:23;;;;;;;;;66.50;49.25;;;;;14.15;41.92;102321.22;5079321;27;62010;-76
2022/03/01 08:12:48;;;;;;;;;65.00;48.25;;;;;14.23;41.14;102304.06;5079527;27;61850;-76
2022/03/01 08:15:14;;;;;;;;;61.25;47.25;;;;;14.29;41.57;102320.25;5079689;27;61940;-75
2022/03/01 08:17:51;;;;;;;;;67.00;52.75;;;;;14.37;41.39;102323.28;5076767;28;62175;-76
2022/03/01 08:20:16;;;;;;;;;66.75;50.75;;;;;14.40;41.34;102320.84;5077162;28;65037;-79
2022/03/01 08:22:42;;;;;;;;;61.75;47.75;;;;;14.46;40.87;102314.13;5078287;28;62333;-77
2022/03/01 08:25:07;;;;;;;;;64.50;48.25;;;;;14.51;41.22;102310.00;5078282;28;61935;-76
2022/03/01 08:27:33;;;;;;;;;63.25;49.50;;;;;14.57;41.36;102309.44;5080400;28;62078;-76
2022/03/01 08:29:58;;;;;;;;;66.75;48.00;;;;;14.66;41.02;102309.03;5080025;28;62125;-76
2022/03/01 08:32:24;;;;;;;;;62.50;47.00;;;;;14.75;40.88;102304.19;5081321;28;62004;-76
2022/03/01 08:34:49;;;;;;;;;65.75;48.75;;;;;14.82;40.70;102311.63;5080061;28;61831;-76
2022/03/01 08:37:15;;;;;;;;;69.25;50.75;;;;;14.90;40.94;102305.00;5070915;27;62417;-75
2022/03/01 08:39:40;;;;;;;;;63.25;47.50;;;;;15.00;40.53;102311.66;5081181;27;63999;-75
2022/03/01 08:42:06;;;;;;;;;61.75;47.50;;;;;15.08;40.55;102315.63;5075175;28;61859;-76
2022/03/01 08:44:31;;;;;;;;;69.75;51.25;;;;;15.16;40.49;102315.97;5081059;27;62015;-75
2022/03/01 08:46:57;;;;;;;;;64.50;50.00;;;;;15.22;40.08;102313.66;5080000;27;61697;-75
2022/03/01 08:49:22;;;;;;;;;70.25;51.00;;;;;15.28;39.57;102324.53;5080212;28;63141;-75
2022/03/01 08:51:47;;;;;;;;;69.25;53.50;;;;;15.28;39.79;102326.28;5081375;28;61697;-75
2022/03/01 08:54:13;;;;;;;;;68.75;54.50;;;;;15.31;40.21;102329.06;5078497;28;61924;-75
2022/03/01 08:56:38;;;;;;;;;64.25;49.25;;;;;15.34;39.91;102327.50;5086933;27;62221;-76
2022/03/01 08:59:05;;;;;;;;;66.25;51.50;;;;;15.37;39.31;102317.91;5077279;28;63504;-75
2022/03/01 09:01:31;;;;;;;;;71.75;52.50;;;;;15.37;39.98;102317.91;5079481;27;62090;-76
2022/03/01 09:03:57;;;;;;;;;64.75;47.75;;;;;15.36;39.17;102316.06;5078451;28;61886;-75
2022/03/01 09:06:23;;;;;;;;;67.50;50.25;;;;;15.35;39.26;102320.47;5087488;27;62063;-75
2022/03/01 09:08:48;;;;;;;;;69.50;53.00;;;;;15.31;39.07;102322.03;5081633;27;62333;-75
2022/03/01 09:11:14;;;;;;;;;70.00;53.25;;;;;15.31;39.29;102329.06;5082779;28;61973;-75
2022/03/01 09:13:39;;;;;;;;;76.00;56.50;;;;;15.29;39.14;102315.75;5082124;28;61909;-76
2022/03/01 09:16:06;;;;;;;;;70.25;53.50;;;;;15.33;39.19;102314.19;5083130;27;61947;-76
2022/03/01 09:18:32;;;;;;;;;65.75;52.25;;;;;15.42;39.17;102314.63;5081685;28;64752;-76
2022/03/01 09:20:57;;;;;;;;;64.50;48.25;;;;;15.54;38.88;102311.69;5082899;27;61985;-75
2022/03/01 09:23:23;;;;;;;;;64.00;50.00;;;;;15.60;38.45;102306.69;5081683;28;61888;-75
2022/03/01 09:25:48;;;;;;;;;53.25;42.50;;;;;15.76;38.39;102311.00;5084192;27;61822;-76
2022/03/01 09:28:13;;;;;;;;;55.50;45.00;;;;;15.94;37.98;102318.94;5081625;28;63642;-76
2022/03/01 09:30:40;;;;;;;;;56.25;43.50;;;;;16.12;37.46;102313.56;5095741;27;62030;-76
2022/03/01 09:33:05;;;;;;;;;53.25;42.00;;;;;16.25;37.21;102313.28;5082406;28;61849;-76
2022/03/01 09:35:30;;;;;;;;;49.00;38.75;;;;;16.36;36.37;102303.19;5083935;27;62283;-76
2022/03/01 09:37:56;;;;;;;;;43.75;40.25;;;;;16.53;37.11;102312.78;5082914;27;61893;-75
2022/03/01 09:40:21;;;;;;;;;59.00;42.25;;;;;16.73;36.36;102305.75;5089267;27;62006;-75
2022/03/01 09:42:50;;;;;;;;;53.50;42.00;;;;;16.92;36.59;102310.13;5080536;28;61822;-75
2022/03/01 09:45:15;;;;;;;;;53.25;43.75;;;;;17.06;36.32;102305.41;5082549;28;61889;-76
2022/03/01 09:47:41;;;;;;;;;53.25;44.00;;;;;17.16;35.75;102310.25;5081586;28;62775;-76
2022/03/01 09:50:09;;;;;;;;;56.00;41.50;;;;;17.30;35.68;102312.56;5071374;28;61897;-76
2022/03/01 09:52:35;;;;;;;;;50.25;39.75;;;;;17.37;34.93;102312.91;5081936;28;62929;-76
2022/03/01 09:55:01;;;;;;;;;46.25;41.25;;;;;17.53;35.33;102316.19;5082332;27;62192;-75
2022/03/01 09:57:26;;;;;;;;;46.75;39.50;;;;;17.70;34.75;102315.09;5084812;27;63416;-75
2022/03/01 09:59:53;;;;;;;;;58.00;41.25;;;;;17.75;35.30;102318.81;5098657;27;62123;-75
2022/03/01 10:02:20;;;;;;;;;44.00;37.00;;;;;17.85;34.76;102321.91;5079162;27;63291;-75
2022/03/01 10:04:59;;;;;;;;;57.25;43.25;;;;;17.95;34.87;102321.38;5076154;28;62045;-75
2022/03/01 10:07:29;;;;;;;;;51.00;33.25;;;;;18.11;34.65;102309.63;5088181;27;62053;-76
2022/03/01 10:10:09;;;;;;;;;61.75;46.75;;;;;18.21;34.16;102309.13;5081113;28;61988;-75
2022/03/01 10:12:36;;;;;;;;;55.25;42.25;;;;;18.28;34.24;102313.81;5081052;27;61821;-76
2022/03/01 10:15:07;;;;;;;;;56.50;43.25;;;;;18.35;34.39;102312.28;5080078;28;62224;-75
2022/03/01 10:17:38;;;;;;;;;48.00;38.75;;;;;18.46;34.12;102308.25;5069998;28;64965;-75
2022/03/01 10:20:15;;;;;;;;;53.25;41.00;;;;;18.59;34.32;102304.28;5080866;27;61919;-75
2022/03/01 10:22:53;;;;;;;;;56.25;42.00;;;;;18.72;33.81;102301.22;5082633;27;61796;-75
2022/03/01 10:25:23;;;;;;;;;49.00;38.00;;;;;18.85;33.43;102305.22;5098706;27;61804;-76
2022/03/01 10:27:50;;;;;;;;;57.50;41.25;;;;;19.03;33.06;102301.41;5080461;27;61845;-75
2022/03/01 10:30:29;;;;;;;;;55.75;40.00;;;;;19.22;33.21;102298.53;5081188;28;61814;-76
2022/03/01 10:33:15;;;;;;;;;57.75;41.75;;;;;19.43;33.26;102295.66;5082201;27;61746;-75
2022/03/01 10:35:43;;;;;;;;;46.75;38.50;;;;;19.51;33.03;102303.88;5080287;28;62107;-77
2022/03/01 10:38:11;;;;;;;;;46.50;37.00;;;;;19.49;32.87;102301.16;5076161;28;64838;-77
2022/03/01 10:40:38;;;;;;;;;40.50;36.75;;;;;19.37;32.80;102296.34;5077234;28;61982;-78
2022/03/01 10:43:13;;;;;;;;;51.00;37.50;;;;;19.25;33.55;102301.28;5064235;27;62099;-77
2022/03/01 10:45:44;;;;;;;;;57.00;43.25;;;;;19.12;32.87;102297.28;5077614;27;61684;-77
2022/03/01 10:48:13;;;;;;;;;51.50;40.25;;;;;19.09;33.69;102293.63;5080230;27;63147;-77
2022/03/01 10:50:40;;;;;;;;;44.75;37.25;;;;;19.14;33.57;102292.03;5073875;28;62098;-78
2022/03/01 10:53:06;;;;;;;;;46.25;39.50;;;;;19.16;33.13;102288.56;5087060;27;61935;-77
2022/03/01 10:55:33;;;;;;;;;54.50;40.25;;;;;19.31;33.04;102292.59;5080970;28;61943;-78
2022/03/01 10:58:08;;;;;;;;;44.75;35.75;;;;;19.42;33.02;102284.06;5079764;28;61857;-78
2022/03/01 11:00:36;;;;;;;;;52.00;40.00;;;;;19.62;32.61;102283.81;5079999;28;62295;-78
2022/03/01 11:03:03;;;;;;;;;57.50;44.00;;;;;19.86;33.03;102278.38;5080090;27;62025;-78
2022/03/01 11:05:33;;;;;;;;;49.50;37.75;;;;;20.08;32.32;102273.69;5087109;27;62140;-79